Decoded Metar for KFDW (FAIRFIELD COUNTY AIRPORT in SC, USA) (IATA:N/A) | Meteo·Mobile Aviation Weather
aviador You're here:

KFDW Decoded Metar

FAIRFIELD COUNTY AIRPORT in SC, USA
Report Time2019-02-16 07:35:00
UTC Time2019-02-16 07:39:24
Flight Rules lifr LIFR
Wind170° at 07 kt
W.Decomp.*RWY 22: 5.1 kt HW 4.8 kt LCW
W.Rank170° ranks 11
Current wind is above 170° avg. (5.7)
Visibility8047 m
Phenomena:Light Rain
Clouds:Overcast 003 Hf
Ceiling300 ft
Temp13°C (ISA -1)
Dew Point13°C (100% RH)
AAT11.4°C
QNH1008 hPa
Density Alt850 ft
Elevation577 ft
Report Wrong Elevation
Raw Report
METAR KFDW 160735Z AUTO 17007KT 5SM -RA OVC003 13/13 A2977 RMK AO1=

Extra information for KFDW:More info

Metar Taf Metar & Taf Last 4 Metars F.Rules Stats Wind Profile Meteogram Temp Stats Airport Information Weather charts Add Link Nearby VenuesMetar ALERT Operation Metar Decoded Social comments

AIRNAV info for KFDW